Station Historical Data
Daily Summary for February 12, 2018 Units:  English    Metric   Both
« Previous Day
Next Day »
Daily Weekly Monthly Yearly Custom
  High: Low: Average:
Temperature: 29.1 °F 13.6 °F 24.1 °F
Dew Point: 24.3 °F 7.9 °F 17 °F
Humidity: 86% 59% 74%
Wind Speed: 10.0mph 0.0mph 4.6mph
Wind Gust: 17.0mph - -
Wind- - WSW
Pressure: 30.83 in 30.16 in -
Precipitation: 0.00 in    
Historical Graphs
 
 
Tabular Data for February 12, 2018
Time Temperature Dew Point Pressure Wind Wind Speed Wind Gust Humidity Rainfall Rate (Hourly)
00:04 27.7 °F 24.1 °F 30.16 in WSW 8.0 mph 17.0 mph 86% 0.00 in
00:09 27.7 °F 24.1 °F 30.17 in WSW 8.0 mph 17.0 mph 86% 0.00 in
00:14 27.7 °F 24.1 °F 30.17 in WSW 9.0 mph 17.0 mph 86% 0.00 in
00:19 27.7 °F 24.1 °F 30.17 in WSW 8.0 mph 16.0 mph 86% 0.00 in
00:24 27.7 °F 24.1 °F 30.18 in WSW 7.0 mph 14.0 mph 86% 0.00 in
00:29 27.7 °F 24.1 °F 30.18 in SW 5.0 mph 13.0 mph 86% 0.00 in
00:34 27.7 °F 24.1 °F 30.19 in WSW 7.0 mph 13.0 mph 86% 0.00 in
00:39 27.7 °F 24.1 °F 30.19 in WSW 7.0 mph 15.0 mph 86% 0.00 in
00:44 27.7 °F 24.1 °F 30.19 in West 8.0 mph 15.0 mph 86% 0.00 in
00:49 27.7 °F 24.1 °F 30.19 in SW 9.0 mph 16.0 mph 86% 0.00 in
00:54 27.8 °F 24.2 °F 30.19 in WSW 5.0 mph 11.0 mph 86% 0.00 in
00:59 27.7 °F 24.1 °F 30.20 in WSW 7.0 mph 12.0 mph 86% 0.00 in
01:04 27.7 °F 24.1 °F 30.20 in West 7.0 mph 10.0 mph 86% 0.00 in
01:09 27.7 °F 24.1 °F 30.20 in WSW 6.0 mph 11.0 mph 86% 0.00 in
01:14 27.7 °F 24.1 °F 30.20 in WSW 6.0 mph 11.0 mph 86% 0.00 in
01:19 27.8 °F 24.2 °F 30.21 in WSW 5.0 mph 11.0 mph 86% 0.00 in
01:24 27.8 °F 24.2 °F 30.21 in WSW 5.0 mph 9.0 mph 86% 0.00 in
01:29 27.8 °F 24.2 °F 30.22 in WSW 4.0 mph 9.0 mph 86% 0.00 in
01:34 27.9 °F 24.3 °F 30.22 in SW 5.0 mph 11.0 mph 86% 0.00 in
01:39 27.8 °F 23.9 °F 30.22 in West 4.0 mph 10.0 mph 85% 0.00 in
01:44 27.8 °F 23.9 °F 30.23 in WSW 5.0 mph 10.0 mph 85% 0.00 in
01:49 27.9 °F 24.0 °F 30.23 in WSW 5.0 mph 11.0 mph 85% 0.00 in
01:54 27.9 °F 23.7 °F 30.24 in WSW 5.0 mph 11.0 mph 84% 0.00 in
01:59 27.9 °F 23.7 °F 30.24 in WNW 5.0 mph 12.0 mph 84% 0.00 in
02:04 27.8 °F 23.3 °F 30.24 in West 4.0 mph 9.0 mph 83% 0.00 in
02:09 27.6 °F 22.8 °F 30.25 in WNW 8.0 mph 9.0 mph 82% 0.00 in
02:14 27.6 °F 22.8 °F 30.25 in WNW 7.0 mph 12.0 mph 82% 0.00 in
02:19 27.6 °F 22.5 °F 30.25 in West 7.0 mph 12.0 mph 81% 0.00 in
02:24 27.5 °F 22.4 °F 30.26 in West 6.0 mph 12.0 mph 81% 0.00 in
02:29 27.5 °F 22.4 °F 30.26 in West 5.0 mph 11.0 mph 81% 0.00 in
02:34 27.5 °F 22.4 °F 30.27 in West 4.0 mph 8.0 mph 81% 0.00 in
02:39 27.6 °F 22.5 °F 30.27 in West 5.0 mph 11.0 mph 81% 0.00 in
02:44 27.5 °F 22.4 °F 30.28 in West 5.0 mph 10.0 mph 81% 0.00 in
02:49 27.5 °F 22.4 °F 30.28 in West 5.0 mph 13.0 mph 81% 0.00 in
02:54 27.5 °F 22.4 °F 30.28 in West 6.0 mph 13.0 mph 81% 0.00 in
02:59 27.5 °F 22.4 °F 30.28 in West 5.0 mph 10.0 mph 81% 0.00 in
03:04 27.5 °F 22.4 °F 30.28 in West 4.0 mph 9.0 mph 81% 0.00 in
03:09 27.5 °F 22.4 °F 30.28 in West 4.0 mph 11.0 mph 81% 0.00 in
03:15 27.4 °F 22.3 °F 30.28 in WSW 3.0 mph 10.0 mph 81% 0.00 in
03:24 27.4 °F 22.3 °F 30.29 in WSW 4.0 mph 13.0 mph 81% 0.00 in
03:29 27.3 °F 21.9 °F 30.29 in WSW 6.0 mph 13.0 mph 80% 0.00 in
03:34 27.3 °F 21.9 °F 30.30 in WSW 5.0 mph 13.0 mph 80% 0.00 in
03:39 27.2 °F 21.8 °F 30.30 in WSW 6.0 mph 13.0 mph 80% 0.00 in
03:45 27.2 °F 21.8 °F 30.30 in WSW 6.0 mph 11.0 mph 80% 0.00 in
03:54 27.1 °F 21.7 °F 30.30 in SW 4.0 mph 11.0 mph 80% 0.00 in
03:59 27.0 °F 21.7 °F 30.30 in WSW 5.0 mph 12.0 mph 80% 0.00 in
04:04 26.8 °F 21.5 °F 30.30 in WSW 5.0 mph 12.0 mph 80% 0.00 in
04:09 26.8 °F 21.5 °F 30.30 in WSW 5.0 mph 12.0 mph 80% 0.00 in
04:14 26.7 °F 21.1 °F 30.30 in WSW 6.0 mph 12.0 mph 79% 0.00 in
04:19 26.6 °F 21.0 °F 30.31 in West 6.0 mph 11.0 mph 79% 0.00 in
04:24 26.5 °F 20.9 °F 30.32 in West 5.0 mph 11.0 mph 79% 0.00 in
04:29 26.5 °F 20.9 °F 30.32 in SW 5.0 mph 10.0 mph 79% 0.00 in
04:34 26.5 °F 20.9 °F 30.32 in WSW 4.0 mph 11.0 mph 79% 0.00 in
04:39 26.4 °F 20.8 °F 30.33 in WSW 6.0 mph 14.0 mph 79% 0.00 in
04:44 26.4 °F 20.8 °F 30.33 in West 2.0 mph 11.0 mph 79% 0.00 in
04:49 26.2 °F 20.3 °F 30.34 in WSW 5.0 mph 10.0 mph 78% 0.00 in
04:54 26.2 °F 20.6 °F 30.34 in WSW 7.0 mph 11.0 mph 79% 0.00 in
04:59 26.0 °F 20.4 °F 30.34 in SW 4.0 mph 11.0 mph 79% 0.00 in
05:04 25.9 °F 20.3 °F 30.36 in SW 4.0 mph 12.0 mph 79% 0.00 in
05:09 25.8 °F 20.2 °F 30.35 in WSW 6.0 mph 13.0 mph 79% 0.00 in
05:14 25.6 °F 20.0 °F 30.36 in WSW 6.0 mph 13.0 mph 79% 0.00 in
05:19 25.4 °F 19.8 °F 30.36 in WSW 5.0 mph 11.0 mph 79% 0.00 in
05:24 25.1 °F 19.5 °F 30.36 in West 5.0 mph 10.0 mph 79% 0.00 in
05:29 24.9 °F 19.3 °F 30.37 in West 5.0 mph 10.0 mph 79% 0.00 in
05:34 24.8 °F 19.2 °F 30.37 in WSW 6.0 mph 13.0 mph 79% 0.00 in
05:39 24.5 °F 18.9 °F 30.38 in WSW 6.0 mph 13.0 mph 79% 0.00 in
05:44 24.3 °F 18.7 °F 30.38 in WNW 10.0 mph 13.0 mph 79% 0.00 in
05:49 24.0 °F 18.1 °F 30.39 in West 9.0 mph 11.0 mph 78% 0.00 in
05:54 23.8 °F 17.9 °F 30.39 in West 5.0 mph 9.0 mph 78% 0.00 in
05:59 23.7 °F 17.8 °F 30.39 in WSW 7.0 mph 14.0 mph 78% 0.00 in
06:04 23.7 °F 17.8 °F 30.40 in WNW 3.0 mph 12.0 mph 78% 0.00 in
06:09 23.5 °F 17.6 °F 30.40 in West 3.0 mph 9.0 mph 78% 0.00 in
06:14 23.3 °F 17.5 °F 30.40 in West 4.0 mph 6.0 mph 78% 0.00 in
06:19 23.1 °F 17.3 °F 30.40 in West 4.0 mph 11.0 mph 78% 0.00 in
06:24 22.9 °F 17.1 °F 30.41 in West 5.0 mph 11.0 mph 78% 0.00 in
06:29 22.7 °F 16.9 °F 30.41 in West 5.0 mph 10.0 mph 78% 0.00 in
06:34 22.4 °F 16.9 °F 30.41 in West 5.0 mph 9.0 mph 79% 0.00 in
06:39 22.3 °F 16.8 °F 30.41 in West 5.0 mph 10.0 mph 79% 0.00 in
06:44 22.0 °F 16.5 °F 30.41 in West 5.0 mph 10.0 mph 79% 0.00 in
06:49 21.9 °F 16.4 °F 30.42 in SW 8.0 mph 9.0 mph 79% 0.00 in
06:54 21.6 °F 16.1 °F 30.42 in West 4.0 mph 11.0 mph 79% 0.00 in
06:59 21.4 °F 15.6 °F 30.42 in West 1.0 mph 9.0 mph 78% 0.00 in
07:04 21.2 °F 15.4 °F 30.43 in SW 5.0 mph 10.0 mph 78% 0.00 in
07:09 21.1 °F 15.3 °F 30.43 in WSW 4.0 mph 8.0 mph 78% 0.00 in
07:14 20.9 °F 15.1 °F 30.44 in WSW 2.0 mph 7.0 mph 78% 0.00 in
07:19 20.8 °F 15.0 °F 30.44 in WNW 4.0 mph 8.0 mph 78% 0.00 in
07:24 20.7 °F 14.9 °F 30.44 in West 3.0 mph 8.0 mph 78% 0.00 in
07:29 20.6 °F 14.8 °F 30.44 in West 3.0 mph 9.0 mph 78% 0.00 in
07:34 20.6 °F 14.8 °F 30.45 in West 4.0 mph 9.0 mph 78% 0.00 in
07:39 20.7 °F 14.9 °F 30.46 in West 4.0 mph 9.0 mph 78% 0.00 in
07:44 20.7 °F 14.9 °F 30.46 in WSW 4.0 mph 9.0 mph 78% 0.00 in
07:49 20.7 °F 14.9 °F 30.47 in West 4.0 mph 9.0 mph 78% 0.00 in
07:54 20.7 °F 14.9 °F 30.47 in WNW 4.0 mph 9.0 mph 78% 0.00 in
07:59 20.7 °F 14.9 °F 30.47 in West 3.0 mph 9.0 mph 78% 0.00 in
08:04 20.7 °F 14.9 °F 30.48 in West 4.0 mph 9.0 mph 78% 0.00 in
08:09 20.9 °F 15.1 °F 30.49 in West 4.0 mph 8.0 mph 78% 0.00 in
08:14 21.0 °F 14.9 °F 30.49 in WSW 6.0 mph 9.0 mph 77% 0.00 in
08:19 21.1 °F 15.0 °F 30.49 in West 5.0 mph 13.0 mph 77% 0.00 in
08:24 21.3 °F 15.2 °F 30.49 in WSW 7.0 mph 9.0 mph 77% 0.00 in
08:29 21.4 °F 15.0 °F 30.49 in WNW 4.0 mph 12.0 mph 76% 0.00 in
08:34 21.5 °F 15.1 °F 30.50 in SW 6.0 mph 13.0 mph 76% 0.00 in
08:39 21.6 °F 14.9 °F 30.50 in WSW 6.0 mph 13.0 mph 75% 0.00 in
08:44 21.8 °F 15.1 °F 30.50 in WSW 5.0 mph 11.0 mph 75% 0.00 in
08:49 22.0 °F 15.3 °F 30.50 in WSW 5.0 mph 9.0 mph 75% 0.00 in
08:54 22.2 °F 15.5 °F 30.51 in WSW 4.0 mph 9.0 mph 75% 0.00 in
08:59 22.4 °F 15.7 °F 30.51 in West 4.0 mph 10.0 mph 75% 0.00 in
09:04 22.5 °F 15.8 °F 30.52 in WSW 2.0 mph 12.0 mph 75% 0.00 in
09:09 22.7 °F 15.7 °F 30.52 in West 7.0 mph 10.0 mph 74% 0.00 in
09:14 22.5 °F 15.5 °F 30.52 in West 5.0 mph 10.0 mph 74% 0.00 in
09:19 22.8 °F 15.8 °F 30.52 in West 5.0 mph 10.0 mph 74% 0.00 in
09:24 22.9 °F 15.8 °F 30.52 in WSW 5.0 mph 10.0 mph 74% 0.00 in
09:29 22.9 °F 15.8 °F 30.52 in WSW 4.0 mph 10.0 mph 74% 0.00 in
09:34 22.7 °F 15.7 °F 30.53 in SSW 4.0 mph 8.0 mph 74% 0.00 in
09:39 22.8 °F 15.8 °F 30.53 in West 4.0 mph 8.0 mph 74% 0.00 in
09:44 22.8 °F 16.1 °F 30.53 in SW 5.0 mph 7.0 mph 75% 0.00 in
09:49 22.8 °F 15.8 °F 30.53 in SW 4.0 mph 10.0 mph 74% 0.00 in
09:54 23.1 °F 16.4 °F 30.53 in SW 5.0 mph 10.0 mph 75% 0.00 in
09:59 23.4 °F 16.6 °F 30.54 in SW 4.0 mph 7.0 mph 75% 0.00 in
10:04 23.5 °F 16.4 °F 30.54 in SW 4.0 mph 7.0 mph 74% 0.00 in
10:09 23.5 °F 16.4 °F 30.55 in SW 4.0 mph 9.0 mph 74% 0.00 in
10:14 24.0 °F 16.9 °F 30.54 in SW 4.0 mph 6.0 mph 74% 0.00 in
10:19 24.0 °F 16.9 °F 30.55 in SW 6.0 mph 8.0 mph 74% 0.00 in
10:24 24.3 °F 17.2 °F 30.55 in WSW 4.0 mph 10.0 mph 74% 0.00 in
10:29 24.3 °F 16.9 °F 30.55 in SSW 3.0 mph 9.0 mph 73% 0.00 in
10:34 24.5 °F 17.1 °F 30.55 in SSW 5.0 mph 8.0 mph 73% 0.00 in
10:39 24.7 °F 17.3 °F 30.55 in WSW 4.0 mph 10.0 mph 73% 0.00 in
10:44 24.7 °F 17.3 °F 30.55 in SSW 7.0 mph 9.0 mph 73% 0.00 in
10:49 24.7 °F 17.6 °F 30.55 in South 2.0 mph 8.0 mph 74% 0.00 in
10:54 25.0 °F 17.6 °F 30.56 in SSW 6.0 mph 8.0 mph 73% 0.00 in
10:59 25.0 °F 17.9 °F 30.56 in SSW 4.0 mph 9.0 mph 74% 0.00 in
11:04 25.3 °F 18.2 °F 30.57 in SSW 5.0 mph 9.0 mph 74% 0.00 in
11:09 25.1 °F 18.0 °F 30.57 in SSW 5.0 mph 11.0 mph 74% 0.00 in
11:14 25.3 °F 18.5 °F 30.57 in SSW 5.0 mph 11.0 mph 75% 0.00 in
11:19 24.7 °F 17.6 °F 30.57 in SSW 6.0 mph 11.0 mph 74% 0.00 in
11:24 25.0 °F 18.2 °F 30.57 in SSW 6.0 mph 11.0 mph 75% 0.00 in
11:29 25.4 °F 18.6 °F 30.57 in SW 5.0 mph 11.0 mph 75% 0.00 in
11:34 25.5 °F 18.7 °F 30.57 in SSW 5.0 mph 11.0 mph 75% 0.00 in
11:39 25.4 °F 18.3 °F 30.57 in SW 5.0 mph 9.0 mph 74% 0.00 in
11:44 25.8 °F 18.7 °F 30.57 in SSW 4.0 mph 10.0 mph 74% 0.00 in
11:49 26.4 °F 19.5 °F 30.57 in West 10.0 mph 10.0 mph 75% 0.00 in
11:54 26.4 °F 18.9 °F 30.57 in WSW 4.0 mph 10.0 mph 73% 0.00 in
11:59 26.9 °F 19.4 °F 30.57 in South 3.0 mph 10.0 mph 73% 0.01 in
12:04 27.0 °F 19.5 °F 30.57 in SW 7.0 mph 9.0 mph 73% 0.01 in
12:09 27.2 °F 19.7 °F 30.57 in WSW 4.0 mph 9.0 mph 73% 0.01 in
12:14 28.1 °F 20.2 °F 30.57 in SW 5.0 mph 9.0 mph 72% 0.01 in
12:19 28.5 °F 20.3 °F 30.57 in SW 5.0 mph 11.0 mph 71% 0.01 in
12:24 27.7 °F 19.5 °F 30.57 in SW 6.0 mph 11.0 mph 71% 0.01 in
12:29 27.4 °F 19.6 °F 30.57 in SW 7.0 mph 13.0 mph 72% 0.01 in
12:34 27.2 °F 19.4 °F 30.58 in SW 7.0 mph 13.0 mph 72% 0.01 in
12:39 27.4 °F 19.6 °F 30.58 in SW 3.0 mph 9.0 mph 72% 0.01 in
12:44 28.4 °F 20.5 °F 30.58 in WSW 6.0 mph 11.0 mph 72% 0.01 in
12:49 28.0 °F 19.8 °F 30.57 in SW 6.0 mph 10.0 mph 71% 0.01 in
12:54 27.6 °F 19.8 °F 30.58 in SSW 4.0 mph 12.0 mph 72% 0.01 in
12:59 27.8 °F 19.6 °F 30.57 in WSW 4.0 mph 14.0 mph 71% 0.00 in
13:04 27.7 °F 19.5 °F 30.57 in WNW 5.0 mph 11.0 mph 71% 0.00 in
13:09 28.2 °F 20.0 °F 30.58 in West 6.0 mph 9.0 mph 71% 0.00 in
13:14 28.5 °F 20.0 °F 30.58 in NW 4.0 mph 12.0 mph 70% 0.00 in
13:19 29.1 °F 19.2 °F 30.58 in WNW 4.0 mph 12.0 mph 66% 0.00 in
13:24 28.5 °F 18.2 °F 30.59 in West 4.0 mph 9.0 mph 65% 0.00 in
13:29 28.1 °F 17.8 °F 30.59 in West 5.0 mph 10.0 mph 65% 0.00 in
13:34 27.9 °F 16.9 °F 30.59 in WNW 5.0 mph 10.0 mph 63% 0.00 in
13:39 27.6 °F 16.6 °F 30.59 in West 5.0 mph 13.0 mph 63% 0.00 in
13:44 27.7 °F 16.7 °F 30.59 in NW 4.0 mph 11.0 mph 63% 0.00 in
13:49 27.7 °F 16.7 °F 30.60 in West 3.0 mph 9.0 mph 63% 0.00 in
13:54 27.7 °F 16.4 °F 30.60 in WNW 5.0 mph 11.0 mph 62% 0.00 in
13:59 27.2 °F 15.9 °F 30.61 in WNW 6.0 mph 11.0 mph 62% 0.00 in
14:04 26.9 °F 15.6 °F 30.61 in WNW 2.0 mph 9.0 mph 62% 0.00 in
14:09 27.0 °F 15.3 °F 30.61 in WSW 5.0 mph 9.0 mph 61% 0.00 in
14:14 26.6 °F 14.6 °F 30.61 in West 8.0 mph 11.0 mph 60% 0.00 in
14:19 26.8 °F 14.4 °F 30.61 in West 4.0 mph 11.0 mph 59% 0.00 in
14:24 26.5 °F 14.5 °F 30.61 in West 9.0 mph 9.0 mph 60% 0.00 in
14:29 26.6 °F 14.6 °F 30.61 in West 5.0 mph 12.0 mph 60% 0.00 in
14:34 26.4 °F 14.8 °F 30.61 in West 6.0 mph 12.0 mph 61% 0.00 in
14:39 27.0 °F 15.3 °F 30.62 in WSW 6.0 mph 12.0 mph 61% 0.00 in
14:44 26.6 °F 14.6 °F 30.62 in West 6.0 mph 12.0 mph 60% 0.00 in
14:49 26.4 °F 14.8 °F 30.62 in West 6.0 mph 12.0 mph 61% 0.00 in
14:54 26.1 °F 14.5 °F 30.63 in West 8.0 mph 8.0 mph 61% 0.00 in
14:59 26.2 °F 14.9 °F 30.63 in WNW 5.0 mph 9.0 mph 62% 0.00 in
15:04 26.7 °F 15.0 °F 30.63 in WNW 5.0 mph 10.0 mph 61% 0.00 in
15:09 27.2 °F 15.1 °F 30.63 in WNW 4.0 mph 9.0 mph 60% 0.00 in
15:14 27.5 °F 15.4 °F 30.63 in West 5.0 mph 9.0 mph 60% 0.00 in
15:20 27.0 °F 16.1 °F 30.64 in West 5.0 mph 13.0 mph 63% 0.00 in
15:25 27.2 °F 15.9 °F 30.64 in West 7.0 mph 9.0 mph 62% 0.00 in
15:34 26.4 °F 16.9 °F 30.64 in WSW 6.0 mph 11.0 mph 67% 0.00 in
15:39 26.0 °F 17.2 °F 30.65 in WSW 6.0 mph 11.0 mph 69% 0.00 in
15:44 26.0 °F 17.2 °F 30.65 in WSW 5.0 mph 10.0 mph 69% 0.00 in
15:49 26.2 °F 17.4 °F 30.65 in West 4.0 mph 10.0 mph 69% 0.00 in
15:54 26.3 °F 17.5 °F 30.65 in West 9.0 mph 9.0 mph 69% 0.00 in
16:00 26.1 °F 17.3 °F 30.65 in WSW 6.0 mph 15.0 mph 69% 0.00 in
16:09 25.7 °F 17.3 °F 30.66 in WSW 6.0 mph 12.0 mph 70% 0.00 in
16:14 25.6 °F 16.8 °F 30.66 in WSW 6.0 mph 16.0 mph 69% 0.00 in
16:19 26.0 °F 17.2 °F 30.66 in WSW 6.0 mph 16.0 mph 69% 0.00 in
16:24 25.9 °F 17.1 °F 30.66 in WNW 3.0 mph 8.0 mph 69% 0.00 in
16:29 25.8 °F 17.0 °F 30.67 in West 3.0 mph 8.0 mph 69% 0.00 in
16:34 25.7 °F 16.9 °F 30.67 in WSW 5.0 mph 15.0 mph 69% 0.00 in
16:40 25.7 °F 16.9 °F 30.67 in WSW 6.0 mph 15.0 mph 69% 0.00 in
16:45 25.6 °F 16.8 °F 30.67 in SW 7.0 mph 11.0 mph 69% 0.00 in
16:54 25.2 °F 16.5 °F 30.68 in WSW 5.0 mph 14.0 mph 69% 0.00 in
16:59 25.0 °F 16.3 °F 30.68 in WSW 4.0 mph 11.0 mph 69% 0.00 in
17:04 24.8 °F 16.1 °F 30.69 in WSW 6.0 mph 12.0 mph 69% 0.00 in
17:09 24.8 °F 15.7 °F 30.69 in SW 6.0 mph 15.0 mph 68% 0.00 in
17:14 24.6 °F 15.5 °F 30.69 in SW 6.0 mph 16.0 mph 68% 0.00 in
17:19 24.3 °F 15.3 °F 30.69 in WSW 6.0 mph 16.0 mph 68% 0.00 in
17:24 23.9 °F 15.2 °F 30.69 in WSW 6.0 mph 9.0 mph 69% 0.00 in
17:29 23.6 °F 14.9 °F 30.69 in WSW 6.0 mph 11.0 mph 69% 0.00 in
17:34 23.4 °F 15.1 °F 30.69 in WSW 5.0 mph 11.0 mph 70% 0.00 in
17:39 23.2 °F 14.9 °F 30.69 in SW 3.0 mph 8.0 mph 70% 0.00 in
17:44 23.0 °F 15.0 °F 30.70 in WSW 5.0 mph 9.0 mph 71% 0.00 in
17:49 23.0 °F 14.7 °F 30.70 in SW 4.0 mph 10.0 mph 70% 0.00 in
17:54 22.8 °F 14.5 °F 30.70 in WSW 4.0 mph 10.0 mph 70% 0.00 in
17:59 22.6 °F 14.6 °F 30.70 in WSW 4.0 mph 9.0 mph 71% 0.00 in
18:04 22.5 °F 14.5 °F 30.71 in WSW 4.0 mph 9.0 mph 71% 0.00 in
18:09 22.2 °F 14.2 °F 30.71 in SW 6.0 mph 8.0 mph 71% 0.00 in
18:14 22.0 °F 14.0 °F 30.71 in WSW 3.0 mph 8.0 mph 71% 0.00 in
18:19 21.9 °F 13.9 °F 30.72 in WSW 5.0 mph 7.0 mph 71% 0.00 in
18:24 21.7 °F 13.7 °F 30.72 in SW 4.0 mph 5.0 mph 71% 0.00 in
18:29 21.5 °F 13.9 °F 30.72 in WSW 4.0 mph 7.0 mph 72% 0.00 in
18:34 21.4 °F 13.8 °F 30.73 in WSW 3.0 mph 7.0 mph 72% 0.00 in
18:39 21.3 °F 13.7 °F 30.72 in WSW 3.0 mph 6.0 mph 72% 0.00 in
18:44 21.3 °F 13.7 °F 30.73 in WSW 2.0 mph 4.0 mph 72% 0.00 in
18:49 21.1 °F 13.5 °F 30.73 in WSW 3.0 mph 6.0 mph 72% 0.00 in
18:54 21.1 °F 13.8 °F 30.73 in WSW 1.0 mph 7.0 mph 73% 0.00 in
18:59 21.0 °F 13.4 °F 30.74 in WSW 2.0 mph 5.0 mph 72% 0.00 in
19:04 21.0 °F 13.7 °F 30.74 in WSW 3.0 mph 5.0 mph 73% 0.00 in
19:09 20.9 °F 13.6 °F 30.74 in WSW 3.0 mph 6.0 mph 73% 0.00 in
19:14 20.8 °F 13.5 °F 30.74 in WSW 3.0 mph 6.0 mph 73% 0.00 in
19:19 20.7 °F 13.4 °F 30.74 in SW 3.0 mph 5.0 mph 73% 0.00 in
19:24 20.6 °F 13.3 °F 30.74 in WSW 1.0 mph 4.0 mph 73% 0.00 in
19:29 20.4 °F 13.1 °F 30.74 in WSW 2.0 mph 4.0 mph 73% 0.00 in
19:34 20.4 °F 13.1 °F 30.74 in SW 2.0 mph 5.0 mph 73% 0.00 in
19:39 20.6 °F 13.6 °F 30.74 in SW 3.0 mph 5.0 mph 74% 0.00 in
19:44 20.7 °F 13.7 °F 30.74 in SW 3.0 mph 5.0 mph 74% 0.00 in
19:49 20.9 °F 13.9 °F 30.75 in WSW 3.0 mph 5.0 mph 74% 0.00 in
19:54 21.1 °F 13.8 °F 30.75 in WSW 2.0 mph 5.0 mph 73% 0.00 in
19:59 21.4 °F 14.1 °F 30.75 in WSW 2.0 mph 7.0 mph 73% 0.00 in
20:04 21.6 °F 14.3 °F 30.75 in West 2.0 mph 5.0 mph 73% 0.00 in
20:09 21.7 °F 14.1 °F 30.76 in West 1.0 mph 6.0 mph 72% 0.00 in
20:14 21.8 °F 14.2 °F 30.76 in West 3.0 mph 8.0 mph 72% 0.00 in
20:19 21.9 °F 13.9 °F 30.76 in West 2.0 mph 6.0 mph 71% 0.00 in
20:24 21.9 °F 13.9 °F 30.76 in WNW 2.0 mph 8.0 mph 71% 0.00 in
20:29 21.9 °F 13.9 °F 30.76 in WNW 4.0 mph 7.0 mph 71% 0.00 in
20:34 21.9 °F 13.9 °F 30.76 in WNW 6.0 mph 9.0 mph 71% 0.00 in
20:39 21.7 °F 13.7 °F 30.76 in West 5.0 mph 7.0 mph 71% 0.00 in
20:44 21.7 °F 13.7 °F 30.76 in WNW 4.0 mph 8.0 mph 71% 0.00 in
20:49 21.6 °F 13.6 °F 30.77 in West 4.0 mph 8.0 mph 71% 0.00 in
20:54 21.6 °F 13.6 °F 30.76 in West 5.0 mph 9.0 mph 71% 0.00 in
20:59 21.5 °F 13.2 °F 30.77 in West 5.0 mph 10.0 mph 70% 0.00 in
21:04 21.4 °F 13.1 °F 30.78 in WSW 3.0 mph 9.0 mph 70% 0.00 in
21:09 21.3 °F 13.4 °F 30.77 in West 4.0 mph 12.0 mph 71% 0.00 in
21:14 21.2 °F 12.9 °F 30.77 in West 5.0 mph 12.0 mph 70% 0.00 in
21:19 21.1 °F 13.2 °F 30.78 in WNW 8.0 mph 8.0 mph 71% 0.00 in
21:24 20.9 °F 13.0 °F 30.78 in West 4.0 mph 9.0 mph 71% 0.00 in
21:29 20.9 °F 13.0 °F 30.78 in West 4.0 mph 9.0 mph 71% 0.00 in
21:34 20.7 °F 12.8 °F 30.78 in WNW 2.0 mph 8.0 mph 71% 0.00 in
21:39 20.7 °F 13.1 °F 30.79 in West 6.0 mph 8.0 mph 72% 0.00 in
21:44 20.6 °F 13.0 °F 30.79 in WNW 3.0 mph 7.0 mph 72% 0.00 in
21:49 20.5 °F 12.9 °F 30.79 in WNW 3.0 mph 5.0 mph 72% 0.00 in
21:54 20.4 °F 12.8 °F 30.79 in WNW 3.0 mph 6.0 mph 72% 0.00 in
21:59 20.3 °F 12.7 °F 30.79 in WNW 3.0 mph 7.0 mph 72% 0.00 in
22:04 20.3 °F 13.0 °F 30.79 in WNW 3.0 mph 7.0 mph 73% 0.00 in
22:09 20.2 °F 12.9 °F 30.79 in WNW 3.0 mph 6.0 mph 73% 0.00 in
22:14 20.1 °F 12.8 °F 30.79 in WNW 3.0 mph 6.0 mph 73% 0.00 in
22:19 20.0 °F 12.7 °F 30.79 in WNW 2.0 mph 5.0 mph 73% 0.00 in
22:24 20.1 °F 12.8 °F 30.79 in WNW 3.0 mph 6.0 mph 73% 0.00 in
22:29 20.1 °F 13.1 °F 30.79 in WNW 2.0 mph 7.0 mph 74% 0.00 in
22:34 20.2 °F 12.9 °F 30.79 in WNW 3.0 mph 7.0 mph 73% 0.00 in
22:39 20.1 °F 12.8 °F 30.79 in WNW 3.0 mph 5.0 mph 73% 0.00 in
22:44 20.0 °F 12.7 °F 30.79 in WNW 3.0 mph 5.0 mph 73% 0.00 in
22:49 19.9 °F 12.6 °F 30.80 in WNW 2.0 mph 5.0 mph 73% 0.00 in
22:54 19.7 °F 12.4 °F 30.80 in WNW 2.0 mph 5.0 mph 73% 0.00 in
22:59 19.5 °F 12.3 °F 30.80 in WNW 1.0 mph 5.0 mph 73% 0.00 in
23:04 19.3 °F 12.4 °F 30.81 in WNW 2.0 mph 4.0 mph 74% 0.00 in
23:09 19.1 °F 12.2 °F 30.80 in WNW 2.0 mph 4.0 mph 74% 0.00 in
23:14 18.8 °F 11.9 °F 30.80 in WNW 2.0 mph 3.0 mph 74% 0.00 in
23:19 18.6 °F 11.7 °F 30.80 in Calm   2.0 mph 74% 0.00 in
23:24 18.4 °F 11.5 °F 30.81 in WNW 1.0 mph 3.0 mph 74% 0.00 in
23:29 18.3 °F 11.4 °F 30.81 in Calm     74% 0.00 in
23:34 17.9 °F 11.0 °F 30.82 in WSW 2.0 mph 4.0 mph 74% 0.00 in
23:39 16.2 °F 9.4 °F 30.81 in WSW 3.0 mph 4.0 mph 74% 0.00 in
23:44 15.0 °F 8.5 °F 30.81 in WSW 2.0 mph 4.0 mph 75% 0.00 in
23:49 14.3 °F 8.1 °F 30.82 in WSW 2.0 mph 4.0 mph 76% 0.00 in
23:54 13.8 °F 7.9 °F 30.83 in WSW 1.0 mph 3.0 mph 77% 0.00 in
23:59 13.6 °F 8.0 °F 30.82 in WSW 1.0 mph 3.0 mph 78% 0.00 in
Buffalo, New York, USA
Compliments of Weather Underground - 2.5 mb